createdAt,value
2022-12-26T00:01:37.056Z,99930.47
2022-12-26T00:04:03.904Z,99930.75
2022-12-26T00:06:31.100Z,99946.44
2022-12-26T00:08:58.237Z,99941.84
2022-12-26T00:11:25.663Z,99931.97
2022-12-26T00:13:56.279Z,99926.66
2022-12-26T00:16:23.063Z,99922.56
2022-12-26T00:18:50.161Z,99924.66
2022-12-26T00:21:17.440Z,99922.03
2022-12-26T00:23:44.229Z,99906.75
2022-12-26T00:26:15.526Z,99889.53
2022-12-26T00:28:42.383Z,99891.63
2022-12-26T00:31:10.388Z,99902.03
2022-12-26T00:33:37.745Z,99912.78
2022-12-26T00:36:06.208Z,99917.63
2022-12-26T00:38:33.699Z,99909.50
2022-12-26T00:41:01.032Z,99893.44
2022-12-26T00:43:27.690Z,99921.81
2022-12-26T00:45:54.234Z,99928.97
2022-12-26T00:48:20.862Z,99920.88
2022-12-26T00:50:47.352Z,99927.09
2022-12-26T00:53:13.918Z,99930.69
2022-12-26T00:55:40.992Z,99947.00
2022-12-26T00:58:07.644Z,99942.22
2022-12-26T01:00:34.252Z,99936.97
2022-12-26T01:03:01.017Z,99928.81
2022-12-26T01:05:27.751Z,99927.94
2022-12-26T01:08:22.878Z,99930.69
2022-12-26T01:10:41.281Z,99943.69
2022-12-26T01:13:08.105Z,99943.59
2022-12-26T01:15:34.639Z,99948.41
2022-12-26T01:18:01.515Z,99935.63
2022-12-26T01:20:28.117Z,99946.69
2022-12-26T01:22:55.128Z,99933.00
2022-12-26T01:25:22.123Z,99941.03
2022-12-26T01:27:48.616Z,99941.09
2022-12-26T01:30:15.162Z,99951.69
2022-12-26T01:32:41.688Z,99937.34
2022-12-26T01:35:08.505Z,99933.19
2022-12-26T01:37:34.995Z,99935.38
2022-12-26T01:40:01.562Z,99935.81
2022-12-26T01:42:35.816Z,99940.19
2022-12-26T01:45:20.525Z,99923.88
2022-12-26T01:47:49.685Z,99932.88
2022-12-26T01:50:24.592Z,99923.09
2022-12-26T01:52:51.367Z,99921.69
2022-12-26T01:55:20.558Z,99935.44
2022-12-26T01:57:54.567Z,99933.63
2022-12-26T02:00:21.144Z,99915.28
2022-12-26T02:03:06.413Z,99916.03
2022-12-26T02:05:36.011Z,99929.78
2022-12-26T02:08:08.371Z,99927.59
2022-12-26T02:10:38.069Z,99940.63
2022-12-26T02:13:05.031Z,99954.03
2022-12-26T02:15:31.685Z,99951.69
2022-12-26T02:17:58.336Z,99945.31
2022-12-26T02:20:26.670Z,99954.25
2022-12-26T02:23:11.831Z,99954.81
2022-12-26T02:25:56.993Z,99952.59
2022-12-26T02:28:32.451Z,99951.69
2022-12-26T02:31:17.087Z,99944.38
2022-12-26T02:33:57.185Z,99942.13
2022-12-26T02:36:42.398Z,99947.97
2022-12-26T02:39:43.253Z,99934.75
2022-12-26T02:42:04.542Z,99944.38
2022-12-26T02:44:59.119Z,99954.31
2022-12-26T02:47:36.707Z,99952.59
2022-12-26T02:50:33.900Z,99953.41
2022-12-26T02:53:24.399Z,99972.53
2022-12-26T02:56:11.713Z,99974.53
2022-12-26T02:59:15.801Z,99968.97
2022-12-26T03:02:04.409Z,99956.19
2022-12-26T03:04:51.524Z,99955.72
2022-12-26T03:07:43.935Z,99944.06
2022-12-26T03:10:39.315Z,99952.47
2022-12-26T03:13:12.405Z,99963.38
2022-12-26T03:16:02.884Z,99962.13
2022-12-26T03:18:59.411Z,99955.88
2022-12-26T03:21:20.153Z,99953.25
2022-12-26T03:23:47.633Z,99953.25
2022-12-26T03:26:39.623Z,99951.00
2022-12-26T03:29:30.095Z,99967.03
2022-12-26T03:31:56.807Z,99985.75
2022-12-26T03:34:23.374Z,99979.38
2022-12-26T03:36:52.923Z,99967.78
2022-12-26T03:39:46.406Z,99986.63
2022-12-26T03:42:37.527Z,99991.34
2022-12-26T03:45:32.875Z,99987.31
2022-12-26T03:48:24.652Z,99985.88
2022-12-26T03:51:13.993Z,99991.56
2022-12-26T03:54:12.511Z,99985.28
2022-12-26T03:57:00.218Z,99988.06
2022-12-26T03:59:49.446Z,99997.97
2022-12-26T04:02:35.462Z,100010.78
2022-12-26T04:05:24.223Z,100012.63
2022-12-26T04:08:18.292Z,100014.88
2022-12-26T04:11:15.376Z,100016.78
2022-12-26T04:14:03.742Z,100015.50
2022-12-26T04:16:58.482Z,100020.28
2022-12-26T04:19:28.131Z,100016.97
2022-12-26T04:22:19.337Z,100017.97
2022-12-26T04:25:11.746Z,100017.22
2022-12-26T04:27:57.067Z,100020.69
2022-12-26T04:30:42.678Z,100020.03
2022-12-26T04:33:42.341Z,100016.19
2022-12-26T04:36:46.772Z,100023.44
2022-12-26T04:39:34.232Z,100014.88
2022-12-26T04:42:19.630Z,100012.03
2022-12-26T04:44:46.339Z,100006.50
2022-12-26T04:47:13.669Z,100005.97
2022-12-26T04:50:02.453Z,100011.34
2022-12-26T04:52:47.837Z,100004.78
2022-12-26T04:55:14.469Z,100015.19
2022-12-26T04:57:40.955Z,100017.81
2022-12-26T05:00:07.738Z,100022.19
2022-12-26T05:02:57.767Z,100015.94
2022-12-26T05:05:42.920Z,100014.56
2022-12-26T05:08:41.339Z,100023.44
2022-12-26T05:11:07.875Z,100029.97
2022-12-26T05:13:34.451Z,100024.47
2022-12-26T05:16:19.843Z,100023.19
2022-12-26T05:19:05.158Z,100033.78
2022-12-26T05:21:50.523Z,100028.31
2022-12-26T05:24:35.873Z,100037.13
2022-12-26T05:27:21.243Z,100039.31
2022-12-26T05:29:47.936Z,100046.31
2022-12-26T05:32:14.510Z,100047.16
2022-12-26T05:34:41.097Z,100031.63
2022-12-26T05:37:07.616Z,100034.75
2022-12-26T05:39:34.179Z,100025.34
2022-12-26T05:42:00.705Z,100033.09
2022-12-26T05:44:27.222Z,100035.72
2022-12-26T05:46:53.720Z,100048.00
2022-12-26T05:49:20.356Z,100055.25
2022-12-26T05:51:46.936Z,100059.13
2022-12-26T05:54:13.550Z,100060.91
2022-12-26T05:56:43.027Z,100059.28
2022-12-26T05:59:14.020Z,100048.03
2022-12-26T06:01:40.711Z,100050.28
2022-12-26T06:04:07.304Z,100055.03
2022-12-26T06:06:33.841Z,100061.47
2022-12-26T06:09:00.455Z,100064.75
2022-12-26T06:11:27.128Z,100073.44
2022-12-26T06:13:54.092Z,100077.13
2022-12-26T06:16:20.825Z,100077.53
2022-12-26T06:18:48.278Z,100083.31
2022-12-26T06:21:16.270Z,100068.16
2022-12-26T06:23:43.179Z,100078.59
2022-12-26T06:26:10.430Z,100074.47
2022-12-26T06:28:37.324Z,100073.53
2022-12-26T06:31:04.961Z,100085.47
2022-12-26T06:33:31.550Z,100073.88
2022-12-26T06:36:05.265Z,100075.31
2022-12-26T06:38:31.800Z,100076.16
2022-12-26T06:40:58.348Z,100075.88
2022-12-26T06:43:24.975Z,100083.59
2022-12-26T06:45:58.511Z,100086.72
2022-12-26T06:48:25.649Z,100084.72
2022-12-26T06:50:54.185Z,100082.97
2022-12-26T06:53:21.738Z,100085.31
2022-12-26T06:55:48.486Z,100080.19
2022-12-26T06:58:15.199Z,100089.38
2022-12-26T07:00:41.722Z,100091.16
2022-12-26T07:03:08.359Z,100097.44
2022-12-26T07:05:37.943Z,100090.09
2022-12-26T07:08:04.640Z,100107.72
2022-12-26T07:10:34.940Z,100123.69
2022-12-26T07:13:01.478Z,100120.63
2022-12-26T07:15:27.979Z,100116.72
2022-12-26T07:17:54.556Z,100123.50
2022-12-26T07:20:21.040Z,100127.44
2022-12-26T07:22:47.604Z,100125.81
2022-12-26T07:25:14.144Z,100126.72
2022-12-26T07:27:40.691Z,100118.78
2022-12-26T07:30:07.571Z,100120.66
2022-12-26T07:32:34.123Z,100118.41
2022-12-26T07:35:00.620Z,100130.84
2022-12-26T07:37:27.233Z,100128.56
2022-12-26T07:39:58.846Z,100143.09
2022-12-26T07:42:26.043Z,100139.44
2022-12-26T07:44:52.545Z,100149.81
2022-12-26T07:47:19.163Z,100145.38
2022-12-26T07:49:45.670Z,100153.69
2022-12-26T07:52:12.232Z,100160.81
2022-12-26T07:54:38.815Z,100169.41
2022-12-26T07:57:38.060Z,100160.56
2022-12-26T07:59:53.656Z,100166.50
2022-12-26T08:02:22.359Z,100172.19
2022-12-26T08:04:49.060Z,100163.88
2022-12-26T08:07:15.613Z,100165.94
2022-12-26T08:09:44.758Z,100168.09
2022-12-26T08:12:11.343Z,100157.94
2022-12-26T08:14:38.071Z,100168.38
2022-12-26T08:17:04.663Z,100174.09
2022-12-26T08:19:31.294Z,100162.63
2022-12-26T08:21:57.888Z,100171.22
2022-12-26T08:24:24.519Z,100174.59
2022-12-26T08:26:51.018Z,100172.28
2022-12-26T08:29:17.587Z,100179.97
2022-12-26T08:31:44.102Z,100176.00
2022-12-26T08:34:10.736Z,100185.88
2022-12-26T08:36:38.365Z,100166.16
2022-12-26T08:39:05.301Z,100168.63
2022-12-26T08:41:31.838Z,100170.56
2022-12-26T08:46:45.964Z,100188.88
2022-12-26T08:49:12.969Z,100193.16
2022-12-26T08:51:39.792Z,100189.13
2022-12-26T08:54:06.633Z,100192.59
2022-12-26T08:56:33.267Z,100186.28
2022-12-26T08:58:59.752Z,100187.13
2022-12-26T09:01:28.925Z,100191.41
2022-12-26T09:04:00.449Z,100192.41
2022-12-26T09:06:28.311Z,100201.44
2022-12-26T09:08:54.812Z,100209.66
2022-12-26T09:11:23.497Z,100211.72
2022-12-26T09:13:50.244Z,100200.91
2022-12-26T09:16:19.112Z,100207.84
2022-12-26T09:18:46.142Z,100208.53
2022-12-26T09:21:14.774Z,100210.69
2022-12-26T09:23:41.854Z,100220.50
2022-12-26T09:26:16.755Z,100225.38
2022-12-26T09:28:43.540Z,100217.25
2022-12-26T09:31:11.980Z,100223.69
2022-12-26T09:33:38.657Z,100233.94
2022-12-26T09:36:12.500Z,100244.25
2022-12-26T09:38:41.401Z,100228.25
2022-12-26T09:41:12.023Z,100231.22
2022-12-26T09:44:00.733Z,100241.63
2022-12-26T09:46:39.758Z,100227.41
2022-12-26T09:49:14.172Z,100221.25
2022-12-26T09:51:43.184Z,100222.19
2022-12-26T09:54:15.144Z,100226.25
2022-12-26T09:59:30.828Z,100234.50
2022-12-26T10:01:57.480Z,100226.94
2022-12-26T10:04:29.691Z,100237.16
2022-12-26T10:07:15.394Z,100228.66
2022-12-26T10:09:55.265Z,100229.59
2022-12-26T10:12:34.943Z,100229.19
2022-12-26T10:15:13.868Z,100231.06
2022-12-26T10:17:40.393Z,100227.34
2022-12-26T10:20:08.002Z,100219.59
2022-12-26T10:22:54.530Z,100213.94
2022-12-26T10:25:23.297Z,100227.59
2022-12-26T10:27:51.687Z,100226.03
2022-12-26T10:30:21.622Z,100225.03
2022-12-26T10:32:51.772Z,100208.34
2022-12-26T10:35:37.460Z,100214.75
2022-12-26T10:38:36.447Z,100218.47
2022-12-26T10:41:23.286Z,100220.97
2022-12-26T10:43:49.877Z,100215.75
2022-12-26T10:46:25.499Z,100217.88
2022-12-26T10:48:52.047Z,100210.25
2022-12-26T10:51:19.862Z,100211.59
2022-12-26T10:53:50.946Z,100202.31
2022-12-26T10:56:18.459Z,100199.00
2022-12-26T10:58:45.773Z,100197.72
2022-12-26T11:01:31.467Z,100187.31
2022-12-26T11:03:59.217Z,100190.78
2022-12-26T11:06:27.697Z,100189.88
2022-12-26T11:08:54.597Z,100190.19
2022-12-26T11:11:23.762Z,100194.47
2022-12-26T11:13:57.698Z,100191.09
2022-12-26T11:16:35.518Z,100195.00
2022-12-26T11:19:02.528Z,100192.88
2022-12-26T11:21:29.826Z,100186.44
2022-12-26T11:24:08.327Z,100188.88
2022-12-26T11:26:35.373Z,100189.00
2022-12-26T11:29:11.574Z,100189.72
2022-12-26T11:31:39.191Z,100181.78
2022-12-26T11:34:09.962Z,100186.03
2022-12-26T11:36:40.447Z,100180.91
2022-12-26T11:39:19.673Z,100175.31
2022-12-26T11:41:49.141Z,100179.03
2022-12-26T11:44:18.774Z,100181.13
2022-12-26T11:46:51.192Z,100171.66
2022-12-26T11:49:22.403Z,100172.91
2022-12-26T11:51:55.495Z,100167.75
2022-12-26T11:54:28.996Z,100165.75
2022-12-26T11:57:03.155Z,100169.91
2022-12-26T11:59:29.772Z,100168.94
2022-12-26T12:02:25.771Z,100164.69
2022-12-26T12:04:54.857Z,100157.88
2022-12-26T12:07:41.667Z,100159.53
2022-12-26T12:10:11.323Z,100159.00
2022-12-26T12:12:43.184Z,100156.16
2022-12-26T12:15:15.596Z,100168.34
2022-12-26T12:17:48.144Z,100162.19
2022-12-26T12:20:51.816Z,100167.59
2022-12-26T12:23:30.548Z,100161.78
2022-12-26T12:25:59.859Z,100157.84
2022-12-26T12:28:26.321Z,100154.66
2022-12-26T12:31:01.994Z,100159.28
2022-12-26T12:33:46.994Z,100157.31
2022-12-26T12:36:18.830Z,100158.06
2022-12-26T12:38:56.701Z,100154.28
2022-12-26T12:41:42.086Z,100152.88
2022-12-26T12:44:20.239Z,100146.38
2022-12-26T12:46:56.003Z,100145.66
2022-12-26T12:49:43.381Z,100145.25
2022-12-26T12:52:19.181Z,100140.25
2022-12-26T12:54:57.604Z,100146.34
2022-12-26T12:57:42.779Z,100143.63
2022-12-26T13:00:23.655Z,100145.63
2022-12-26T13:02:57.450Z,100150.75
2022-12-26T13:05:24.099Z,100147.91
2022-12-26T13:07:58.815Z,100150.22
2022-12-26T13:10:29.063Z,100142.19
2022-12-26T13:12:57.228Z,100145.72
2022-12-26T13:18:15.488Z,100138.69
2022-12-26T13:20:42.015Z,100147.00
2022-12-26T13:23:35.251Z,100146.66
2022-12-26T13:26:21.684Z,100130.78
2022-12-26T13:28:58.781Z,100125.59
2022-12-26T13:31:25.492Z,100127.19
2022-12-26T13:33:52.061Z,100126.06
2022-12-26T13:36:38.695Z,100125.28
2022-12-26T13:39:08.297Z,100122.28
2022-12-26T13:41:54.350Z,100123.47
2022-12-26T13:44:20.886Z,100115.81
2022-12-26T13:46:47.345Z,100118.16
2022-12-26T13:49:29.240Z,100119.03
2022-12-26T13:51:59.840Z,100116.28
2022-12-26T13:54:27.911Z,100117.00
2022-12-26T13:57:00.915Z,100110.09
2022-12-26T13:59:38.695Z,100121.75
2022-12-26T14:03:07.727Z,100120.00
2022-12-26T14:05:36.670Z,100119.38
2022-12-26T14:08:05.951Z,100115.47
2022-12-26T14:10:38.339Z,100116.53
2022-12-26T14:13:23.511Z,100116.63
2022-12-26T14:16:00.750Z,100126.03
2022-12-26T14:18:34.898Z,100123.47
2022-12-26T14:21:01.457Z,100136.81
2022-12-26T14:23:27.921Z,100130.03
2022-12-26T14:25:54.493Z,100126.41
2022-12-26T14:28:46.460Z,100131.81
2022-12-26T14:31:19.022Z,100133.25
2022-12-26T14:34:04.231Z,100145.09
2022-12-26T14:36:45.769Z,100154.41
2022-12-26T14:39:31.118Z,100160.66
2022-12-26T14:42:25.501Z,100177.53
2022-12-26T14:44:59.251Z,100183.59
2022-12-26T14:47:44.515Z,100193.00
2022-12-26T14:50:29.574Z,100212.28
2022-12-26T14:53:16.121Z,100250.88
2022-12-26T14:56:01.489Z,100259.72
2022-12-26T14:58:31.151Z,100253.81
2022-12-26T15:01:20.832Z,100267.28
2022-12-26T15:03:59.743Z,100275.03
2022-12-26T15:06:44.959Z,100272.47
2022-12-26T15:09:34.470Z,100269.38
2022-12-26T15:12:19.572Z,100267.59
2022-12-26T15:14:49.188Z,100275.56
2022-12-26T15:17:24.553Z,100269.38
2022-12-26T15:20:03.133Z,100259.44
2022-12-26T15:22:29.734Z,100264.00
2022-12-26T15:27:58.138Z,100262.88
2022-12-26T15:30:27.516Z,100277.66
2022-12-26T15:33:01.821Z,100272.25
2022-12-26T15:35:33.713Z,100273.22
2022-12-26T15:38:17.515Z,100282.22
2022-12-26T15:40:45.851Z,100299.47
2022-12-26T15:43:28.283Z,100304.91
2022-12-26T15:45:57.858Z,100301.47
2022-12-26T15:48:56.577Z,100315.94
2022-12-26T15:51:41.627Z,100311.13
2022-12-26T15:54:08.153Z,100323.38
2022-12-26T15:56:44.592Z,100321.31
2022-12-26T15:59:29.996Z,100335.53
2022-12-26T16:01:58.357Z,100333.50
2022-12-26T16:04:27.198Z,100341.59
2022-12-26T16:06:56.821Z,100345.03
2022-12-26T16:09:39.641Z,100349.34
2022-12-26T16:12:18.435Z,100354.72
2022-12-26T16:14:45.075Z,100361.50
2022-12-26T16:17:14.561Z,100365.88
2022-12-26T16:19:42.138Z,100369.97
2022-12-26T16:22:31.493Z,100362.41
2022-12-26T16:24:58.097Z,100369.66
2022-12-26T16:27:25.665Z,100366.41
2022-12-26T16:29:54.992Z,100371.34
2022-12-26T16:32:26.151Z,100378.84
2022-12-26T16:34:52.959Z,100380.03
2022-12-26T16:37:21.664Z,100390.47
2022-12-26T16:40:07.136Z,100394.25
2022-12-26T16:42:34.207Z,100390.53
2022-12-26T16:45:00.858Z,100380.75
2022-12-26T16:47:28.914Z,100400.97
2022-12-26T16:49:56.511Z,100404.13
2022-12-26T16:52:42.111Z,100404.84
2022-12-26T16:55:30.933Z,100410.25
2022-12-26T16:57:58.747Z,100420.75
2022-12-26T17:00:26.608Z,100430.41
2022-12-26T17:02:56.187Z,100418.22
2022-12-26T17:05:22.833Z,100422.84
2022-12-26T17:07:50.532Z,100427.06
2022-12-26T17:10:24.825Z,100429.91
2022-12-26T17:12:52.332Z,100436.00
2022-12-26T17:15:25.184Z,100436.31
2022-12-26T17:17:51.865Z,100446.03
2022-12-26T17:20:29.436Z,100445.34
2022-12-26T17:22:56.472Z,100460.16
2022-12-26T17:25:24.573Z,100459.22
2022-12-26T17:28:06.147Z,100457.16
2022-12-26T17:30:33.248Z,100465.78
2022-12-26T17:33:04.452Z,100452.75
2022-12-26T17:35:46.968Z,100441.91
2022-12-26T17:38:17.536Z,100452.41
2022-12-26T17:40:45.462Z,100468.63
2022-12-26T17:43:11.918Z,100471.41
2022-12-26T17:45:44.648Z,100476.00
2022-12-26T17:48:13.055Z,100476.66
2022-12-26T17:50:40.595Z,100482.03
2022-12-26T17:53:16.110Z,100494.44
2022-12-26T17:55:42.650Z,100506.09
2022-12-26T17:58:12.955Z,100509.25
2022-12-26T18:00:40.503Z,100508.66
2022-12-26T18:03:07.371Z,100505.94
2022-12-26T18:05:34.578Z,100500.59
2022-12-26T18:08:01.377Z,100497.47
2022-12-26T18:10:30.557Z,100502.81
2022-12-26T18:12:57.865Z,100511.25
2022-12-26T18:15:28.502Z,100516.00
2022-12-26T18:17:55.228Z,100520.09
2022-12-26T18:20:23.251Z,100531.16
2022-12-26T18:22:50.031Z,100525.66
2022-12-26T18:25:17.298Z,100544.72
2022-12-26T18:27:44.449Z,100551.75
2022-12-26T18:30:18.552Z,100555.28
2022-12-26T18:32:45.739Z,100558.72
2022-12-26T18:35:12.602Z,100558.56
2022-12-26T18:37:40.755Z,100561.13
2022-12-26T18:40:14.690Z,100568.81
2022-12-26T18:42:41.274Z,100569.53
2022-12-26T18:45:07.916Z,100571.31
2022-12-26T18:47:34.482Z,100578.31
2022-12-26T18:50:01.041Z,100582.69
2022-12-26T18:52:27.558Z,100588.91
2022-12-26T18:54:54.045Z,100598.53
2022-12-26T18:57:20.656Z,100596.66
2022-12-26T18:59:48.303Z,100604.28
2022-12-26T19:02:16.304Z,100611.41
2022-12-26T19:04:42.921Z,100620.00
2022-12-26T19:07:11.065Z,100616.56
2022-12-26T19:09:37.626Z,100617.44
2022-12-26T19:12:04.327Z,100613.81
2022-12-26T19:14:30.826Z,100615.38
2022-12-26T19:16:57.391Z,100611.44
2022-12-26T19:19:26.652Z,100627.44
2022-12-26T19:21:53.180Z,100634.22
2022-12-26T19:24:19.720Z,100634.94
2022-12-26T19:26:46.342Z,100637.72
2022-12-26T19:29:12.959Z,100642.41
2022-12-26T19:31:39.524Z,100632.44
2022-12-26T19:34:06.057Z,100645.50
2022-12-26T19:36:32.612Z,100643.00
2022-12-26T19:38:59.719Z,100643.28
2022-12-26T19:41:26.306Z,100645.66
2022-12-26T19:43:56.729Z,100657.84
2022-12-26T19:46:23.812Z,100650.72
2022-12-26T19:48:50.815Z,100662.28
2022-12-26T19:51:17.821Z,100658.94
2022-12-26T19:53:45.007Z,100656.91
2022-12-26T19:56:16.169Z,100661.41
2022-12-26T19:58:43.056Z,100660.97
2022-12-26T20:01:10.890Z,100664.31
2022-12-26T20:03:37.590Z,100666.78
2022-12-26T20:06:14.732Z,100672.25
2022-12-26T20:08:42.190Z,100677.63
2022-12-26T20:11:15.265Z,100686.22
2022-12-26T20:13:43.086Z,100689.06
2022-12-26T20:16:37.420Z,100690.03
2022-12-26T20:18:58.502Z,100688.59
2022-12-26T20:21:25.025Z,100693.69
2022-12-26T20:23:51.567Z,100694.06
2022-12-26T20:26:19.489Z,100691.22
2022-12-26T20:28:46.200Z,100694.97
2022-12-26T20:31:14.117Z,100692.25
2022-12-26T20:33:42.045Z,100703.13
2022-12-26T20:36:13.405Z,100702.22
2022-12-26T20:38:40.534Z,100697.56
2022-12-26T20:41:07.519Z,100702.97
2022-12-26T20:43:34.177Z,100704.59
2022-12-26T20:46:07.741Z,100716.06
2022-12-26T20:48:34.619Z,100718.81
2022-12-26T20:51:02.354Z,100729.25
2022-12-26T20:53:28.960Z,100739.53
2022-12-26T20:55:57.616Z,100750.25
2022-12-26T20:58:25.577Z,100737.19
2022-12-26T21:00:56.704Z,100739.72
2022-12-26T21:03:23.511Z,100752.06
2022-12-26T21:05:50.103Z,100751.22
2022-12-26T21:08:16.669Z,100764.31
2022-12-26T21:10:43.225Z,100759.97
2022-12-26T21:13:09.938Z,100761.56
2022-12-26T21:15:36.932Z,100771.28
2022-12-26T21:18:03.999Z,100767.91
2022-12-26T21:20:30.957Z,100772.25
2022-12-26T21:22:57.846Z,100774.03
2022-12-26T21:25:24.352Z,100780.22
2022-12-26T21:27:53.865Z,100781.97
2022-12-26T21:30:22.751Z,100790.72
2022-12-26T21:32:49.311Z,100790.78
2022-12-26T21:35:15.865Z,100796.75
2022-12-26T21:37:54.304Z,100811.69
2022-12-26T21:40:22.981Z,100806.44
2022-12-26T21:42:49.503Z,100806.38
2022-12-26T21:45:16.130Z,100817.00
2022-12-26T21:47:42.631Z,100818.75
2022-12-26T21:50:09.364Z,100828.34
2022-12-26T21:52:35.894Z,100832.75
2022-12-26T21:55:20.945Z,100834.34
2022-12-26T21:57:47.839Z,100840.53
2022-12-26T22:00:14.615Z,100850.03
2022-12-26T22:03:00.112Z,100850.16
2022-12-26T22:05:27.946Z,100855.31
2022-12-26T22:07:55.598Z,100857.94
2022-12-26T22:10:41.976Z,100857.06
2022-12-26T22:13:08.644Z,100858.00
2022-12-26T22:15:54.035Z,100858.84
2022-12-26T22:18:20.569Z,100861.47
2022-12-26T22:20:47.115Z,100865.84
2022-12-26T22:23:13.803Z,100877.22
2022-12-26T22:25:40.288Z,100858.91
2022-12-26T22:28:06.895Z,100864.09
2022-12-26T22:30:33.425Z,100870.25
2022-12-26T22:33:00.099Z,100871.09
2022-12-26T22:35:27.850Z,100872.00
2022-12-26T22:37:54.463Z,100866.78
2022-12-26T22:40:20.970Z,100876.34
2022-12-26T22:42:47.491Z,100871.97
2022-12-26T22:45:14.041Z,100878.06
2022-12-26T22:47:40.576Z,100882.38
2022-12-26T22:50:07.336Z,100887.69
2022-12-26T22:52:33.899Z,100884.09
2022-12-26T22:55:00.384Z,100892.00
2022-12-26T22:57:26.915Z,100895.47
2022-12-26T23:00:10.805Z,100891.06
2022-12-26T23:02:37.783Z,100891.91
2022-12-26T23:05:05.030Z,100898.09
2022-12-26T23:07:32.070Z,100907.72
2022-12-26T23:09:58.917Z,100900.72
2022-12-26T23:12:44.110Z,100907.56
2022-12-26T23:15:12.043Z,100905.84
2022-12-26T23:17:58.055Z,100897.19
2022-12-26T23:20:44.988Z,100896.22
2022-12-26T23:23:11.776Z,100898.91
2022-12-26T23:25:39.086Z,100902.38
2022-12-26T23:28:24.097Z,100909.41
2022-12-26T23:30:50.650Z,100905.00
2022-12-26T23:33:17.130Z,100901.50
2022-12-26T23:35:44.069Z,100905.94
2022-12-26T23:38:10.562Z,100907.63
2022-12-26T23:40:37.143Z,100912.84
2022-12-26T23:43:03.656Z,100919.78
2022-12-26T23:45:30.192Z,100915.44
2022-12-26T23:47:56.668Z,100916.34
2022-12-26T23:50:23.310Z,100919.81
2022-12-26T23:52:49.809Z,100921.53
2022-12-26T23:55:16.457Z,100916.25
2022-12-26T23:57:43.081Z,100911.06
